sensor_id;sensor_type;location;lat;lon;timestamp;temperature;humidity
49489;SHT31;35382;51.484;11.476;2023-05-31T00:01:21;13.08;72.22
49489;SHT31;35382;51.484;11.476;2023-05-31T00:03:02;13.02;72.98
49489;SHT31;35382;51.484;11.476;2023-05-31T00:04:43;13.12;71.98
49489;SHT31;35382;51.484;11.476;2023-05-31T00:06:24;13.23;71.16
49489;SHT31;35382;51.484;11.476;2023-05-31T00:08:05;13.15;71.78
49489;SHT31;35382;51.484;11.476;2023-05-31T00:09:46;13.15;72.01
49489;SHT31;35382;51.484;11.476;2023-05-31T00:11:27;13.26;71.31
49489;SHT31;35382;51.484;11.476;2023-05-31T00:13:08;13.28;71.07
49489;SHT31;35382;51.484;11.476;2023-05-31T00:14:50;13.34;70.78
49489;SHT31;35382;51.484;11.476;2023-05-31T00:16:33;13.16;71.50
49489;SHT31;35382;51.484;11.476;2023-05-31T00:18:14;13.11;71.27
49489;SHT31;35382;51.484;11.476;2023-05-31T00:19:55;13.22;71.30
49489;SHT31;35382;51.484;11.476;2023-05-31T00:21:36;13.06;72.27
49489;SHT31;35382;51.484;11.476;2023-05-31T00:23:17;12.99;72.18
49489;SHT31;35382;51.484;11.476;2023-05-31T00:24:58;13.08;71.73
49489;SHT31;35382;51.484;11.476;2023-05-31T00:26:39;12.99;71.93
49489;SHT31;35382;51.484;11.476;2023-05-31T00:28:20;12.98;72.07
49489;SHT31;35382;51.484;11.476;2023-05-31T00:30:01;12.98;71.75
49489;SHT31;35382;51.484;11.476;2023-05-31T00:31:44;13.04;71.22
49489;SHT31;35382;51.484;11.476;2023-05-31T00:33:25;12.87;71.92
49489;SHT31;35382;51.484;11.476;2023-05-31T00:35:06;13.09;70.71
49489;SHT31;35382;51.484;11.476;2023-05-31T00:36:47;12.94;71.92
49489;SHT31;35382;51.484;11.476;2023-05-31T00:38:28;12.91;71.97
49489;SHT31;35382;51.484;11.476;2023-05-31T00:40:09;13.06;70.84
49489;SHT31;35382;51.484;11.476;2023-05-31T00:41:50;12.85;71.87
49489;SHT31;35382;51.484;11.476;2023-05-31T00:43:31;12.81;71.26
49489;SHT31;35382;51.484;11.476;2023-05-31T00:45:12;12.89;71.27
49489;SHT31;35382;51.484;11.476;2023-05-31T00:46:53;12.85;70.77
49489;SHT31;35382;51.484;11.476;2023-05-31T00:48:35;12.75;71.14
49489;SHT31;35382;51.484;11.476;2023-05-31T00:50:16;12.74;71.09
49489;SHT31;35382;51.484;11.476;2023-05-31T00:51:57;12.72;71.33
49489;SHT31;35382;51.484;11.476;2023-05-31T00:53:39;12.81;71.61
49489;SHT31;35382;51.484;11.476;2023-05-31T00:55:21;12.65;71.64
49489;SHT31;35382;51.484;11.476;2023-05-31T00:57:02;12.80;71.81
49489;SHT31;35382;51.484;11.476;2023-05-31T00:58:46;12.74;71.23
49489;SHT31;35382;51.484;11.476;2023-05-31T01:00:28;12.81;70.85
49489;SHT31;35382;51.484;11.476;2023-05-31T01:02:10;12.72;71.16
49489;SHT31;35382;51.484;11.476;2023-05-31T01:03:55;12.64;71.42
49489;SHT31;35382;51.484;11.476;2023-05-31T01:05:37;12.82;70.92
49489;SHT31;35382;51.484;11.476;2023-05-31T01:07:18;12.75;71.11
49489;SHT31;35382;51.484;11.476;2023-05-31T01:09:01;12.61;71.23
49489;SHT31;35382;51.484;11.476;2023-05-31T01:10:45;12.50;71.82
49489;SHT31;35382;51.484;11.476;2023-05-31T01:16:13;12.48;72.14
49489;SHT31;35382;51.484;11.476;2023-05-31T01:18:14;12.52;71.33
49489;SHT31;35382;51.484;11.476;2023-05-31T01:20:08;12.48;71.29
49489;SHT31;35382;51.484;11.476;2023-05-31T01:22:01;12.48;71.37
49489;SHT31;35382;51.484;11.476;2023-05-31T01:27:36;12.44;70.93
49489;SHT31;35382;51.484;11.476;2023-05-31T01:29:22;12.50;71.35
49489;SHT31;35382;51.484;11.476;2023-05-31T01:31:07;12.48;71.08
49489;SHT31;35382;51.484;11.476;2023-05-31T01:32:51;12.48;71.52
49489;SHT31;35382;51.484;11.476;2023-05-31T01:34:32;12.60;69.99
49489;SHT31;35382;51.484;11.476;2023-05-31T01:36:13;12.68;70.31
49489;SHT31;35382;51.484;11.476;2023-05-31T01:37:57;12.60;69.97
49489;SHT31;35382;51.484;11.476;2023-05-31T01:39:38;12.61;70.26
49489;SHT31;35382;51.484;11.476;2023-05-31T01:41:20;12.45;70.76
49489;SHT31;35382;51.484;11.476;2023-05-31T01:43:03;12.60;69.89
49489;SHT31;35382;51.484;11.476;2023-05-31T01:44:45;12.33;71.04
49489;SHT31;35382;51.484;11.476;2023-05-31T01:46:28;12.38;70.76
49489;SHT31;35382;51.484;11.476;2023-05-31T01:48:10;12.38;70.57
49489;SHT31;35382;51.484;11.476;2023-05-31T01:49:52;12.47;70.80
49489;SHT31;35382;51.484;11.476;2023-05-31T01:51:36;12.36;71.35
49489;SHT31;35382;51.484;11.476;2023-05-31T01:53:18;12.31;71.22
49489;SHT31;35382;51.484;11.476;2023-05-31T01:54:59;12.31;71.10
49489;SHT31;35382;51.484;11.476;2023-05-31T01:56:41;12.30;71.23
49489;SHT31;35382;51.484;11.476;2023-05-31T01:58:24;12.33;70.90
49489;SHT31;35382;51.484;11.476;2023-05-31T02:00:06;12.44;70.40
49489;SHT31;35382;51.484;11.476;2023-05-31T02:01:56;12.50;70.22
49489;SHT31;35382;51.484;11.476;2023-05-31T02:03:41;12.41;70.92
49489;SHT31;35382;51.484;11.476;2023-05-31T02:05:22;12.61;70.00
49489;SHT31;35382;51.484;11.476;2023-05-31T02:07:03;12.42;70.42
49489;SHT31;35382;51.484;11.476;2023-05-31T02:08:44;12.41;70.33
49489;SHT31;35382;51.484;11.476;2023-05-31T02:10:25;12.34;70.77
49489;SHT31;35382;51.484;11.476;2023-05-31T02:12:06;12.31;70.58
49489;SHT31;35382;51.484;11.476;2023-05-31T02:13:47;12.23;71.10
49489;SHT31;35382;51.484;11.476;2023-05-31T02:15:28;12.24;71.03
49489;SHT31;35382;51.484;11.476;2023-05-31T02:17:10;12.30;70.73
49489;SHT31;35382;51.484;11.476;2023-05-31T02:18:54;12.17;71.27
49489;SHT31;35382;51.484;11.476;2023-05-31T02:20:37;12.03;72.01
49489;SHT31;35382;51.484;11.476;2023-05-31T02:22:20;12.10;71.17
49489;SHT31;35382;51.484;11.476;2023-05-31T02:24:01;12.13;71.60
49489;SHT31;35382;51.484;11.476;2023-05-31T02:25:45;12.26;71.07
49489;SHT31;35382;51.484;11.476;2023-05-31T02:27:28;12.14;70.69
49489;SHT31;35382;51.484;11.476;2023-05-31T02:29:09;12.16;70.57
49489;SHT31;35382;51.484;11.476;2023-05-31T02:31:00;12.31;70.31
49489;SHT31;35382;51.484;11.476;2023-05-31T02:32:41;12.16;70.84
49489;SHT31;35382;51.484;11.476;2023-05-31T02:34:23;12.27;70.53
49489;SHT31;35382;51.484;11.476;2023-05-31T02:36:04;12.23;70.79
49489;SHT31;35382;51.484;11.476;2023-05-31T02:37:45;12.17;70.79
49489;SHT31;35382;51.484;11.476;2023-05-31T02:39:27;12.14;70.47
49489;SHT31;35382;51.484;11.476;2023-05-31T02:41:08;12.08;70.75
49489;SHT31;35382;51.484;11.476;2023-05-31T02:42:53;12.21;70.80
49489;SHT31;35382;51.484;11.476;2023-05-31T02:44:34;12.12;70.93
49489;SHT31;35382;51.484;11.476;2023-05-31T02:46:15;12.17;70.87
49489;SHT31;35382;51.484;11.476;2023-05-31T02:47:57;12.26;70.03
49489;SHT31;35382;51.484;11.476;2023-05-31T02:49:38;12.18;70.31
49489;SHT31;35382;51.484;11.476;2023-05-31T02:51:22;12.23;70.33
49489;SHT31;35382;51.484;11.476;2023-05-31T02:53:26;12.27;70.11
49489;SHT31;35382;51.484;11.476;2023-05-31T02:55:13;12.36;69.46
49489;SHT31;35382;51.484;11.476;2023-05-31T02:57:20;12.34;69.88
49489;SHT31;35382;51.484;11.476;2023-05-31T02:59:02;12.44;69.16
49489;SHT31;35382;51.484;11.476;2023-05-31T03:01:09;12.21;70.42
49489;SHT31;35382;51.484;11.476;2023-05-31T03:02:58;12.24;70.18
49489;SHT31;35382;51.484;11.476;2023-05-31T03:04:55;12.16;70.57
49489;SHT31;35382;51.484;11.476;2023-05-31T03:06:38;12.24;70.61
49489;SHT31;35382;51.484;11.476;2023-05-31T03:08:21;12.24;70.19
49489;SHT31;35382;51.484;11.476;2023-05-31T03:10:06;12.16;70.88
49489;SHT31;35382;51.484;11.476;2023-05-31T03:11:47;12.04;71.07
49489;SHT31;35382;51.484;11.476;2023-05-31T03:13:28;12.16;71.00
49489;SHT31;35382;51.484;11.476;2023-05-31T03:15:10;12.38;70.27
49489;SHT31;35382;51.484;11.476;2023-05-31T03:16:51;12.51;69.58
49489;SHT31;35382;51.484;11.476;2023-05-31T03:18:32;12.31;69.80
49489;SHT31;35382;51.484;11.476;2023-05-31T03:20:13;12.14;70.80
49489;SHT31;35382;51.484;11.476;2023-05-31T03:21:54;12.38;69.70
49489;SHT31;35382;51.484;11.476;2023-05-31T03:23:36;12.36;70.15
49489;SHT31;35382;51.484;11.476;2023-05-31T03:25:17;12.37;70.28
49489;SHT31;35382;51.484;11.476;2023-05-31T03:26:57;12.31;69.83
49489;SHT31;35382;51.484;11.476;2023-05-31T03:28:40;12.20;70.85
49489;SHT31;35382;51.484;11.476;2023-05-31T03:30:22;12.12;70.90
49489;SHT31;35382;51.484;11.476;2023-05-31T03:32:09;12.28;70.80
49489;SHT31;35382;51.484;11.476;2023-05-31T03:33:52;12.21;70.75
49489;SHT31;35382;51.484;11.476;2023-05-31T03:35:33;12.38;70.90
49489;SHT31;35382;51.484;11.476;2023-05-31T03:37:17;12.36;70.38
49489;SHT31;35382;51.484;11.476;2023-05-31T03:39:02;12.36;70.31
49489;SHT31;35382;51.484;11.476;2023-05-31T03:40:44;12.30;70.41
49489;SHT31;35382;51.484;11.476;2023-05-31T03:42:25;12.24;71.08
49489;SHT31;35382;51.484;11.476;2023-05-31T03:44:06;12.34;70.52
49489;SHT31;35382;51.484;11.476;2023-05-31T03:45:47;12.51;70.18
49489;SHT31;35382;51.484;11.476;2023-05-31T03:47:28;12.45;70.53
49489;SHT31;35382;51.484;11.476;2023-05-31T03:49:09;12.47;70.63
49489;SHT31;35382;51.484;11.476;2023-05-31T03:50:51;12.41;70.76
49489;SHT31;35382;51.484;11.476;2023-05-31T03:52:32;12.52;70.40
49489;SHT31;35382;51.484;11.476;2023-05-31T03:54:13;12.54;70.56
49489;SHT31;35382;51.484;11.476;2023-05-31T03:55:54;12.61;70.03
49489;SHT31;35382;51.484;11.476;2023-05-31T03:57:35;13.20;68.58
49489;SHT31;35382;51.484;11.476;2023-05-31T03:59:16;13.59;67.05
49489;SHT31;35382;51.484;11.476;2023-05-31T04:00:57;13.42;67.66
49489;SHT31;35382;51.484;11.476;2023-05-31T04:02:41;14.02;66.37
49489;SHT31;35382;51.484;11.476;2023-05-31T04:04:23;14.78;64.80
49489;SHT31;35382;51.484;11.476;2023-05-31T04:06:09;15.14;63.41
49489;SHT31;35382;51.484;11.476;2023-05-31T04:07:51;15.32;63.07
49489;SHT31;35382;51.484;11.476;2023-05-31T04:09:32;15.75;62.12
49489;SHT31;35382;51.484;11.476;2023-05-31T04:11:13;16.03;61.44
49489;SHT31;35382;51.484;11.476;2023-05-31T04:12:54;16.17;61.06
49489;SHT31;35382;51.484;11.476;2023-05-31T04:14:36;16.33;60.95
49489;SHT31;35382;51.484;11.476;2023-05-31T04:16:18;16.40;60.40
49489;SHT31;35382;51.484;11.476;2023-05-31T04:17:59;16.60;60.13
49489;SHT31;35382;51.484;11.476;2023-05-31T04:19:40;17.00;60.44
49489;SHT31;35382;51.484;11.476;2023-05-31T04:21:21;16.80;59.48
49489;SHT31;35382;51.484;11.476;2023-05-31T04:23:04;17.14;60.27
49489;SHT31;35382;51.484;11.476;2023-05-31T04:24:45;17.05;59.55
49489;SHT31;35382;51.484;11.476;2023-05-31T04:26:30;17.25;59.55
49489;SHT31;35382;51.484;11.476;2023-05-31T04:28:13;17.14;58.85
49489;SHT31;35382;51.484;11.476;2023-05-31T04:29:56;17.00;59.20
49489;SHT31;35382;51.484;11.476;2023-05-31T04:31:38;16.94;59.55
49489;SHT31;35382;51.484;11.476;2023-05-31T04:33:19;17.17;59.64
49489;SHT31;35382;51.484;11.476;2023-05-31T04:35:01;17.48;59.21
49489;SHT31;35382;51.484;11.476;2023-05-31T04:36:46;17.73;58.92
49489;SHT31;35382;51.484;11.476;2023-05-31T04:38:32;17.99;57.88
49489;SHT31;35382;51.484;11.476;2023-05-31T04:40:14;17.90;58.22
49489;SHT31;35382;51.484;11.476;2023-05-31T04:41:56;17.99;57.73
49489;SHT31;35382;51.484;11.476;2023-05-31T04:43:37;17.65;57.86
49489;SHT31;35382;51.484;11.476;2023-05-31T04:45:21;18.10;58.36
49489;SHT31;35382;51.484;11.476;2023-05-31T04:47:05;17.78;58.80
49489;SHT31;35382;51.484;11.476;2023-05-31T04:48:47;18.13;58.33
49489;SHT31;35382;51.484;11.476;2023-05-31T04:50:32;18.10;58.54
49489;SHT31;35382;51.484;11.476;2023-05-31T04:52:14;17.86;57.80
49489;SHT31;35382;51.484;11.476;2023-05-31T04:53:55;17.95;58.02
49489;SHT31;35382;51.484;11.476;2023-05-31T04:55:36;18.00;57.72
49489;SHT31;35382;51.484;11.476;2023-05-31T04:57:25;18.49;58.41
49489;SHT31;35382;51.484;11.476;2023-05-31T04:59:09;18.34;58.29
49489;SHT31;35382;51.484;11.476;2023-05-31T05:00:52;18.54;58.06
49489;SHT31;35382;51.484;11.476;2023-05-31T05:02:38;18.36;58.48
49489;SHT31;35382;51.484;11.476;2023-05-31T05:04:19;18.46;57.80
49489;SHT31;35382;51.484;11.476;2023-05-31T05:06:01;18.46;57.75
49489;SHT31;35382;51.484;11.476;2023-05-31T05:07:52;18.44;60.04
49489;SHT31;35382;51.484;11.476;2023-05-31T05:09:34;18.37;58.64
49489;SHT31;35382;51.484;11.476;2023-05-31T05:11:16;18.59;58.43
49489;SHT31;35382;51.484;11.476;2023-05-31T05:12:57;18.57;58.57
49489;SHT31;35382;51.484;11.476;2023-05-31T05:14:39;18.87;57.74
49489;SHT31;35382;51.484;11.476;2023-05-31T05:16:20;18.51;57.46
49489;SHT31;35382;51.484;11.476;2023-05-31T05:18:02;18.61;57.47
49489;SHT31;35382;51.484;11.476;2023-05-31T05:19:44;18.50;58.12
49489;SHT31;35382;51.484;11.476;2023-05-31T05:21:28;18.65;57.49
49489;SHT31;35382;51.484;11.476;2023-05-31T05:23:11;18.59;58.32
49489;SHT31;35382;51.484;11.476;2023-05-31T05:24:52;18.78;57.72
49489;SHT31;35382;51.484;11.476;2023-05-31T05:26:35;18.70;57.16
49489;SHT31;35382;51.484;11.476;2023-05-31T05:28:22;18.91;58.18
49489;SHT31;35382;51.484;11.476;2023-05-31T05:30:03;18.74;58.47
49489;SHT31;35382;51.484;11.476;2023-05-31T05:31:53;18.61;59.17
49489;SHT31;35382;51.484;11.476;2023-05-31T05:33:35;18.60;57.34
49489;SHT31;35382;51.484;11.476;2023-05-31T05:35:18;18.63;57.53
49489;SHT31;35382;51.484;11.476;2023-05-31T05:37:02;18.84;57.90
49489;SHT31;35382;51.484;11.476;2023-05-31T05:38:44;18.78;56.67
49489;SHT31;35382;51.484;11.476;2023-05-31T05:40:25;18.37;57.84
49489;SHT31;35382;51.484;11.476;2023-05-31T05:42:06;18.57;57.19
49489;SHT31;35382;51.484;11.476;2023-05-31T05:43:48;18.39;57.56
49489;SHT31;35382;51.484;11.476;2023-05-31T05:45:31;18.41;58.73
49489;SHT31;35382;51.484;11.476;2023-05-31T05:47:13;18.46;59.22
49489;SHT31;35382;51.484;11.476;2023-05-31T05:48:53;18.63;59.14
49489;SHT31;35382;51.484;11.476;2023-05-31T05:50:37;18.84;58.05
49489;SHT31;35382;51.484;11.476;2023-05-31T05:52:20;18.60;58.27
49489;SHT31;35382;51.484;11.476;2023-05-31T05:54:01;18.64;57.51
49489;SHT31;35382;51.484;11.476;2023-05-31T05:55:50;18.87;57.81
49489;SHT31;35382;51.484;11.476;2023-05-31T05:57:35;18.93;57.62
49489;SHT31;35382;51.484;11.476;2023-05-31T05:59:37;19.14;56.42
49489;SHT31;35382;51.484;11.476;2023-05-31T06:01:29;18.85;58.98
49489;SHT31;35382;51.484;11.476;2023-05-31T06:03:13;18.88;57.78
49489;SHT31;35382;51.484;11.476;2023-05-31T06:04:57;18.95;57.74
49489;SHT31;35382;51.484;11.476;2023-05-31T06:06:40;18.87;57.02
49489;SHT31;35382;51.484;11.476;2023-05-31T06:08:25;19.10;57.09
49489;SHT31;35382;51.484;11.476;2023-05-31T06:10:06;19.14;56.28
49489;SHT31;35382;51.484;11.476;2023-05-31T06:11:47;19.29;55.94
49489;SHT31;35382;51.484;11.476;2023-05-31T06:13:28;19.19;57.28
49489;SHT31;35382;51.484;11.476;2023-05-31T06:15:15;19.18;56.70
49489;SHT31;35382;51.484;11.476;2023-05-31T06:16:58;19.12;56.64
49489;SHT31;35382;51.484;11.476;2023-05-31T06:18:44;19.07;55.78
49489;SHT31;35382;51.484;11.476;2023-05-31T06:20:27;19.14;57.60
49489;SHT31;35382;51.484;11.476;2023-05-31T06:22:11;19.57;57.88
49489;SHT31;35382;51.484;11.476;2023-05-31T06:23:52;19.66;56.33
49489;SHT31;35382;51.484;11.476;2023-05-31T06:25:32;19.69;56.70
49489;SHT31;35382;51.484;11.476;2023-05-31T06:27:16;19.79;56.92
49489;SHT31;35382;51.484;11.476;2023-05-31T06:28:59;19.95;55.42
49489;SHT31;35382;51.484;11.476;2023-05-31T06:30:59;19.92;54.09
49489;SHT31;35382;51.484;11.476;2023-05-31T06:32:41;19.93;54.93
49489;SHT31;35382;51.484;11.476;2023-05-31T06:34:22;19.95;54.87
49489;SHT31;35382;51.484;11.476;2023-05-31T06:36:07;20.08;54.06
49489;SHT31;35382;51.484;11.476;2023-05-31T06:37:48;20.19;54.98
49489;SHT31;35382;51.484;11.476;2023-05-31T06:39:29;20.02;54.62
49489;SHT31;35382;51.484;11.476;2023-05-31T06:41:15;20.39;53.79
49489;SHT31;35382;51.484;11.476;2023-05-31T06:42:56;20.67;54.20
49489;SHT31;35382;51.484;11.476;2023-05-31T06:45:03;20.83;54.82
49489;SHT31;35382;51.484;11.476;2023-05-31T06:47:04;21.01;52.87
49489;SHT31;35382;51.484;11.476;2023-05-31T06:49:02;21.21;54.66
49489;SHT31;35382;51.484;11.476;2023-05-31T06:50:49;21.24;54.68
49489;SHT31;35382;51.484;11.476;2023-05-31T06:52:56;20.64;52.10
49489;SHT31;35382;51.484;11.476;2023-05-31T06:54:45;20.91;53.62
49489;SHT31;35382;51.484;11.476;2023-05-31T06:56:28;21.37;52.68
49489;SHT31;35382;51.484;11.476;2023-05-31T06:58:13;21.06;52.06
49489;SHT31;35382;51.484;11.476;2023-05-31T06:59:57;21.18;51.62
49489;SHT31;35382;51.484;11.476;2023-05-31T07:01:42;21.14;53.21
49489;SHT31;35382;51.484;11.476;2023-05-31T07:03:27;21.42;51.83
49489;SHT31;35382;51.484;11.476;2023-05-31T07:05:08;21.45;52.73
49489;SHT31;35382;51.484;11.476;2023-05-31T07:06:50;21.44;54.91
49489;SHT31;35382;51.484;11.476;2023-05-31T07:08:30;21.32;52.83
49489;SHT31;35382;51.484;11.476;2023-05-31T07:10:32;21.17;54.89
49489;SHT31;35382;51.484;11.476;2023-05-31T07:12:14;21.27;53.04
49489;SHT31;35382;51.484;11.476;2023-05-31T07:13:56;21.37;52.92
49489;SHT31;35382;51.484;11.476;2023-05-31T07:15:42;21.51;53.83
49489;SHT31;35382;51.484;11.476;2023-05-31T07:17:23;21.40;52.95
49489;SHT31;35382;51.484;11.476;2023-05-31T07:19:06;21.44;52.35
49489;SHT31;35382;51.484;11.476;2023-05-31T07:20:47;21.44;53.96
49489;SHT31;35382;51.484;11.476;2023-05-31T07:22:28;21.71;55.11
49489;SHT31;35382;51.484;11.476;2023-05-31T07:24:09;21.32;51.88
49489;SHT31;35382;51.484;11.476;2023-05-31T07:25:50;21.44;53.16
49489;SHT31;35382;51.484;11.476;2023-05-31T07:27:31;21.51;54.12
49489;SHT31;35382;51.484;11.476;2023-05-31T07:29:12;21.71;56.45
49489;SHT31;35382;51.484;11.476;2023-05-31T07:30:53;22.01;54.69
49489;SHT31;35382;51.484;11.476;2023-05-31T07:32:36;22.09;51.82
49489;SHT31;35382;51.484;11.476;2023-05-31T07:34:17;22.06;50.86
49489;SHT31;35382;51.484;11.476;2023-05-31T07:35:58;21.96;51.71
49489;SHT31;35382;51.484;11.476;2023-05-31T07:37:40;22.25;52.46
49489;SHT31;35382;51.484;11.476;2023-05-31T07:39:21;22.43;50.35
49489;SHT31;35382;51.484;11.476;2023-05-31T07:41:02;22.12;51.27
49489;SHT31;35382;51.484;11.476;2023-05-31T07:42:44;22.48;51.09
49489;SHT31;35382;51.484;11.476;2023-05-31T07:44:28;22.79;51.62
49489;SHT31;35382;51.484;11.476;2023-05-31T07:46:09;22.49;48.29
49489;SHT31;35382;51.484;11.476;2023-05-31T07:47:52;22.55;50.70
49489;SHT31;35382;51.484;11.476;2023-05-31T07:49:33;22.80;50.69
49489;SHT31;35382;51.484;11.476;2023-05-31T07:51:14;22.84;48.66
49489;SHT31;35382;51.484;11.476;2023-05-31T07:52:55;22.82;51.23
49489;SHT31;35382;51.484;11.476;2023-05-31T07:54:36;22.84;49.49
49489;SHT31;35382;51.484;11.476;2023-05-31T07:56:17;22.96;50.16
49489;SHT31;35382;51.484;11.476;2023-05-31T07:57:58;23.24;51.89
49489;SHT31;35382;51.484;11.476;2023-05-31T07:59:41;23.26;49.08
49489;SHT31;35382;51.484;11.476;2023-05-31T08:01:22;23.21;49.68
49489;SHT31;35382;51.484;11.476;2023-05-31T08:03:03;23.17;49.00
49489;SHT31;35382;51.484;11.476;2023-05-31T08:04:44;23.08;49.78
49489;SHT31;35382;51.484;11.476;2023-05-31T08:06:25;22.82;50.48
49489;SHT31;35382;51.484;11.476;2023-05-31T08:08:06;22.93;51.15
49489;SHT31;35382;51.484;11.476;2023-05-31T08:09:47;22.90;48.42
49489;SHT31;35382;51.484;11.476;2023-05-31T08:11:28;22.96;51.23
49489;SHT31;35382;51.484;11.476;2023-05-31T08:13:10;23.18;50.80
49489;SHT31;35382;51.484;11.476;2023-05-31T08:14:51;23.36;50.51
49489;SHT31;35382;51.484;11.476;2023-05-31T08:16:33;23.23;51.76
49489;SHT31;35382;51.484;11.476;2023-05-31T08:18:14;23.50;49.29
49489;SHT31;35382;51.484;11.476;2023-05-31T08:19:55;23.48;49.73
49489;SHT31;35382;51.484;11.476;2023-05-31T08:21:42;23.40;49.70
49489;SHT31;35382;51.484;11.476;2023-05-31T08:23:26;23.62;52.00
49489;SHT31;35382;51.484;11.476;2023-05-31T08:25:07;23.48;49.95
49489;SHT31;35382;51.484;11.476;2023-05-31T08:26:49;23.50;48.13
49489;SHT31;35382;51.484;11.476;2023-05-31T08:28:35;23.62;49.86
49489;SHT31;35382;51.484;11.476;2023-05-31T08:30:15;23.31;48.91
49489;SHT31;35382;51.484;11.476;2023-05-31T08:31:56;23.30;47.20
49489;SHT31;35382;51.484;11.476;2023-05-31T08:33:57;23.23;47.65
49489;SHT31;35382;51.484;11.476;2023-05-31T08:35:38;23.67;49.87
49489;SHT31;35382;51.484;11.476;2023-05-31T08:37:21;23.57;49.06
49489;SHT31;35382;51.484;11.476;2023-05-31T08:39:02;23.50;47.39
49489;SHT31;35382;51.484;11.476;2023-05-31T08:40:47;23.53;48.11
49489;SHT31;35382;51.484;11.476;2023-05-31T08:42:37;23.57;47.30
49489;SHT31;35382;51.484;11.476;2023-05-31T08:44:19;23.54;46.26
49489;SHT31;35382;51.484;11.476;2023-05-31T08:46:03;23.54;45.60
49489;SHT31;35382;51.484;11.476;2023-05-31T08:47:53;23.75;48.33
49489;SHT31;35382;51.484;11.476;2023-05-31T08:49:39;23.72;45.46
49489;SHT31;35382;51.484;11.476;2023-05-31T08:51:24;23.79;46.21
49489;SHT31;35382;51.484;11.476;2023-05-31T08:53:07;23.67;46.06
49489;SHT31;35382;51.484;11.476;2023-05-31T08:54:49;23.81;46.09
49489;SHT31;35382;51.484;11.476;2023-05-31T08:56:38;23.93;49.08
49489;SHT31;35382;51.484;11.476;2023-05-31T08:58:19;23.78;46.26
49489;SHT31;35382;51.484;11.476;2023-05-31T09:00:01;23.89;45.87
49489;SHT31;35382;51.484;11.476;2023-05-31T09:01:49;23.72;46.89
49489;SHT31;35382;51.484;11.476;2023-05-31T09:03:31;23.94;46.35
49489;SHT31;35382;51.484;11.476;2023-05-31T09:05:13;23.91;46.42
49489;SHT31;35382;51.484;11.476;2023-05-31T09:06:55;24.05;47.73
49489;SHT31;35382;51.484;11.476;2023-05-31T09:08:36;23.78;46.83
49489;SHT31;35382;51.484;11.476;2023-05-31T09:10:19;23.82;47.85
49489;SHT31;35382;51.484;11.476;2023-05-31T09:12:00;24.14;47.49
49489;SHT31;35382;51.484;11.476;2023-05-31T09:13:41;24.22;47.06
49489;SHT31;35382;51.484;11.476;2023-05-31T09:15:23;24.48;47.54
49489;SHT31;35382;51.484;11.476;2023-05-31T09:17:06;24.45;45.92
49489;SHT31;35382;51.484;11.476;2023-05-31T09:18:47;24.79;47.48
49489;SHT31;35382;51.484;11.476;2023-05-31T09:20:32;24.18;49.21
49489;SHT31;35382;51.484;11.476;2023-05-31T09:22:15;24.48;48.53
49489;SHT31;35382;51.484;11.476;2023-05-31T09:23:58;24.04;43.98
49489;SHT31;35382;51.484;11.476;2023-05-31T09:25:48;23.88;44.36
49489;SHT31;35382;51.484;11.476;2023-05-31T09:27:38;24.02;45.75
49489;SHT31;35382;51.484;11.476;2023-05-31T09:29:21;23.70;45.16
49489;SHT31;35382;51.484;11.476;2023-05-31T09:31:07;23.91;45.93
49489;SHT31;35382;51.484;11.476;2023-05-31T09:32:53;23.81;45.06
49489;SHT31;35382;51.484;11.476;2023-05-31T09:34:35;24.02;43.98
49489;SHT31;35382;51.484;11.476;2023-05-31T09:36:26;24.05;44.11
49489;SHT31;35382;51.484;11.476;2023-05-31T09:38:09;24.22;45.93
49489;SHT31;35382;51.484;11.476;2023-05-31T09:39:57;23.95;44.32
49489;SHT31;35382;51.484;11.476;2023-05-31T09:41:38;24.08;43.80
49489;SHT31;35382;51.484;11.476;2023-05-31T09:43:19;23.62;43.98
49489;SHT31;35382;51.484;11.476;2023-05-31T09:45:02;23.98;47.19
49489;SHT31;35382;51.484;11.476;2023-05-31T09:46:45;24.26;46.68
49489;SHT31;35382;51.484;11.476;2023-05-31T09:48:29;24.26;44.80
49489;SHT31;35382;51.484;11.476;2023-05-31T09:50:11;24.61;43.66
49489;SHT31;35382;51.484;11.476;2023-05-31T09:51:52;24.47;43.90
49489;SHT31;35382;51.484;11.476;2023-05-31T09:53:38;24.30;41.54
49489;SHT31;35382;51.484;11.476;2023-05-31T09:55:19;24.22;43.29
49489;SHT31;35382;51.484;11.476;2023-05-31T09:57:00;24.22;44.99
49489;SHT31;35382;51.484;11.476;2023-05-31T09:58:42;24.55;45.42
49489;SHT31;35382;51.484;11.476;2023-05-31T10:00:25;24.55;44.25
49489;SHT31;35382;51.484;11.476;2023-05-31T10:02:07;24.18;42.80
49489;SHT31;35382;51.484;11.476;2023-05-31T10:03:49;24.22;41.54
49489;SHT31;35382;51.484;11.476;2023-05-31T10:05:31;24.52;48.83
49489;SHT31;35382;51.484;11.476;2023-05-31T10:07:13;24.24;43.27
49489;SHT31;35382;51.484;11.476;2023-05-31T10:08:54;24.35;44.23
49489;SHT31;35382;51.484;11.476;2023-05-31T10:10:35;24.48;44.77
49489;SHT31;35382;51.484;11.476;2023-05-31T10:12:18;24.76;44.27
49489;SHT31;35382;51.484;11.476;2023-05-31T10:14:02;24.90;44.52
49489;SHT31;35382;51.484;11.476;2023-05-31T10:15:46;24.56;41.91
49489;SHT31;35382;51.484;11.476;2023-05-31T10:17:33;24.32;41.90
49489;SHT31;35382;51.484;11.476;2023-05-31T10:19:24;24.30;42.90
49489;SHT31;35382;51.484;11.476;2023-05-31T10:22:52;23.95;40.56
49489;SHT31;35382;51.484;11.476;2023-05-31T10:24:50;24.24;43.12
49489;SHT31;35382;51.484;11.476;2023-05-31T10:27:16;24.05;41.74
49489;SHT31;35382;51.484;11.476;2023-05-31T10:30:46;24.38;39.94
49489;SHT31;35382;51.484;11.476;2023-05-31T10:32:32;24.56;42.61
49489;SHT31;35382;51.484;11.476;2023-05-31T10:34:25;24.56;41.74
49489;SHT31;35382;51.484;11.476;2023-05-31T10:36:06;24.72;40.29
49489;SHT31;35382;51.484;11.476;2023-05-31T10:37:48;24.69;45.82
49489;SHT31;35382;51.484;11.476;2023-05-31T10:39:53;24.15;43.88
49489;SHT31;35382;51.484;11.476;2023-05-31T10:41:42;24.53;44.74
49489;SHT31;35382;51.484;11.476;2023-05-31T10:43:32;24.42;42.09
49489;SHT31;35382;51.484;11.476;2023-05-31T10:45:15;24.21;41.81
49489;SHT31;35382;51.484;11.476;2023-05-31T10:47:01;23.95;41.80
49489;SHT31;35382;51.484;11.476;2023-05-31T10:48:51;23.64;40.82
49489;SHT31;35382;51.484;11.476;2023-05-31T10:50:33;23.40;40.92
49489;SHT31;35382;51.484;11.476;2023-05-31T10:52:16;23.78;42.79
49489;SHT31;35382;51.484;11.476;2023-05-31T10:53:57;23.91;42.22
49489;SHT31;35382;51.484;11.476;2023-05-31T10:55:41;24.01;41.28